createdAt,value
2022-11-20T12:17:23.278Z,4.69
2022-11-20T12:19:50.371Z,4.65
2022-11-20T12:23:06.167Z,4.54
2022-11-20T12:25:39.490Z,4.70
2022-11-20T12:28:39.525Z,4.72
2022-11-20T12:31:48.585Z,4.64
2022-11-20T12:34:33.733Z,4.61
2022-11-20T12:37:23.774Z,4.79
2022-11-20T12:39:54.470Z,4.78
2022-11-20T12:43:06.428Z,4.47
2022-11-20T12:45:53.368Z,4.47
2022-11-20T12:48:35.422Z,4.70
2022-11-20T12:51:19.470Z,4.60
2022-11-20T12:53:55.852Z,4.68
2022-11-20T12:56:29.207Z,4.55
2022-11-20T12:58:56.152Z,4.72
2022-11-20T13:01:51.769Z,4.53
2022-11-20T13:04:37.107Z,4.49
2022-11-20T13:07:09.658Z,4.39
2022-11-20T13:09:43.753Z,4.42
2022-11-20T13:12:35.990Z,4.43
2022-11-20T13:15:09.951Z,4.59
2022-11-20T13:20:33.639Z,4.62
2022-11-20T13:23:01.289Z,4.40
2022-11-20T13:25:40.520Z,4.50
2022-11-20T13:28:11.112Z,4.71
2022-11-20T13:30:52.157Z,4.65
2022-11-20T13:33:34.790Z,4.45
2022-11-20T13:36:22.958Z,4.43
2022-11-20T13:38:57.764Z,4.23
2022-11-20T13:41:39.187Z,4.27
2022-11-20T13:44:32.076Z,4.28
2022-11-20T13:46:59.592Z,4.15
2022-11-20T13:49:32.298Z,4.18
2022-11-20T13:52:24.830Z,4.23
2022-11-20T13:55:16.327Z,4.43
2022-11-20T13:58:22.022Z,4.45
2022-11-20T14:01:00.658Z,4.04
2022-11-20T14:03:59.120Z,4.36
2022-11-20T14:06:28.754Z,4.26
2022-11-20T14:08:57.034Z,4.21
2022-11-20T14:11:29.964Z,4.15
2022-11-20T14:14:06.292Z,4.19
2022-11-20T14:16:37.080Z,4.33
2022-11-20T14:19:22.402Z,4.42
2022-11-20T14:21:51.397Z,4.13
2022-11-20T14:24:24.627Z,4.24
2022-11-20T14:26:53.618Z,4.21
2022-11-20T14:29:27.988Z,4.35
2022-11-20T14:31:57.428Z,4.43
2022-11-20T14:34:27.838Z,4.38
2022-11-20T14:37:04.001Z,4.18
2022-11-20T14:39:39.300Z,4.32
2022-11-20T14:42:17.794Z,4.44
2022-11-20T14:44:48.928Z,4.63
2022-11-20T14:47:20.703Z,4.54
2022-11-20T14:49:49.241Z,4.60
2022-11-20T14:52:23.106Z,4.46
2022-11-20T14:54:58.096Z,4.49
2022-11-20T14:57:37.620Z,4.45
2022-11-20T15:00:14.079Z,4.50
2022-11-20T15:02:46.784Z,4.44
2022-11-20T15:05:15.874Z,4.50
2022-11-20T15:07:49.700Z,4.54
2022-11-20T15:10:20.207Z,4.41
2022-11-20T15:12:50.633Z,4.36
2022-11-20T15:15:45.484Z,4.61
2022-11-20T15:18:17.667Z,4.41
2022-11-20T15:20:45.434Z,4.43
2022-11-20T15:23:14.911Z,4.42
2022-11-20T15:25:43.128Z,4.57
2022-11-20T15:28:20.859Z,4.72
2022-11-20T15:30:49.801Z,4.85
2022-11-20T15:33:18.480Z,4.43
2022-11-20T15:35:46.406Z,4.39
2022-11-20T15:38:14.007Z,4.40
2022-11-20T15:40:41.571Z,4.52
2022-11-20T15:43:13.332Z,4.42
2022-11-20T15:45:51.799Z,4.48
2022-11-20T15:48:31.096Z,4.53
2022-11-20T15:51:34.709Z,4.46
2022-11-20T15:54:03.577Z,4.46
2022-11-20T15:56:31.216Z,4.39
2022-11-20T15:58:58.590Z,4.39
2022-11-20T16:01:26.159Z,4.49
2022-11-20T16:03:53.796Z,4.57
2022-11-20T16:06:21.229Z,4.51
2022-11-20T16:08:48.350Z,4.59
2022-11-20T16:11:18.093Z,4.61
2022-11-20T16:14:04.297Z,4.71
2022-11-20T16:16:34.854Z,4.64
2022-11-20T16:19:02.673Z,4.54
2022-11-20T16:21:32.692Z,4.65
2022-11-20T16:24:01.908Z,4.44
2022-11-20T16:26:29.728Z,4.28
2022-11-20T16:28:57.445Z,4.62
2022-11-20T16:31:24.739Z,4.55
2022-11-20T16:33:53.899Z,4.28
2022-11-20T16:36:22.891Z,4.71
2022-11-20T16:38:55.085Z,4.78
2022-11-20T16:41:23.239Z,4.59
2022-11-20T16:43:53.203Z,4.54
2022-11-20T16:46:23.837Z,4.51
2022-11-20T16:49:04.559Z,4.50
2022-11-20T16:51:35.358Z,4.55
2022-11-20T16:54:04.005Z,4.47
2022-11-20T16:56:31.880Z,4.17
2022-11-20T16:59:00.985Z,4.43
2022-11-20T17:01:29.926Z,4.27
2022-11-20T17:04:00.800Z,4.35
2022-11-20T17:06:34.531Z,4.30
2022-11-20T17:09:02.365Z,4.20
2022-11-20T17:11:29.938Z,4.09
2022-11-20T17:14:01.552Z,4.19
2022-11-20T17:16:28.614Z,4.06
2022-11-20T17:19:02.533Z,4.21
2022-11-20T17:21:32.010Z,4.14
2022-11-20T17:24:06.376Z,4.03
2022-11-20T17:26:35.348Z,3.93
2022-11-20T17:29:06.911Z,4.06
2022-11-20T17:31:36.920Z,3.96
2022-11-20T17:34:05.523Z,4.12
2022-11-20T17:36:33.609Z,3.98
2022-11-20T17:39:01.392Z,4.12
2022-11-20T17:41:30.520Z,4.40
2022-11-20T17:44:00.120Z,4.38
2022-11-20T17:46:30.216Z,4.26
2022-11-20T17:48:57.658Z,4.21
2022-11-20T17:51:31.719Z,4.17
2022-11-20T17:54:01.670Z,4.31
2022-11-20T17:56:54.828Z,4.61
2022-11-20T17:59:22.536Z,4.61
2022-11-20T18:01:50.105Z,4.28
2022-11-20T18:04:17.959Z,4.20
2022-11-20T18:06:45.149Z,4.08
2022-11-20T18:09:14.607Z,4.39
2022-11-20T18:11:43.317Z,4.16
2022-11-20T18:14:35.627Z,4.09
2022-11-20T18:17:07.708Z,4.18
2022-11-20T18:19:42.615Z,4.19
2022-11-20T18:22:16.825Z,4.13
2022-11-20T18:24:45.640Z,4.23
2022-11-20T18:27:18.891Z,4.43
2022-11-20T18:29:49.244Z,4.24
2022-11-20T18:32:16.854Z,4.15
2022-11-20T18:34:44.686Z,4.38
2022-11-20T18:37:15.542Z,4.45
2022-11-20T18:39:43.746Z,4.33
2022-11-20T18:42:34.579Z,4.20
2022-11-20T18:45:04.867Z,4.26
2022-11-20T18:47:38.461Z,4.25
2022-11-20T18:50:06.892Z,4.27
2022-11-20T18:52:39.060Z,4.13
2022-11-20T18:55:07.674Z,4.25
2022-11-20T18:57:36.582Z,4.26
2022-11-20T19:00:09.324Z,4.18
2022-11-20T19:02:42.728Z,4.14
2022-11-20T19:05:16.291Z,4.02
2022-11-20T19:07:44.102Z,4.04
2022-11-20T19:10:11.803Z,3.98
